createdAt,value
2018-04-07T00:01:09.472Z,8.27
2018-04-07T00:03:36.872Z,8.47
2018-04-07T00:06:05.052Z,9.60
2018-04-07T00:08:32.463Z,8.47
2018-04-07T00:11:00.665Z,8.63
2018-04-07T00:13:28.061Z,8.60
2018-04-07T00:15:55.564Z,8.77
2018-04-07T00:18:22.968Z,8.37
2018-04-07T00:20:50.384Z,8.77
2018-04-07T00:23:18.560Z,8.60
2018-04-07T00:25:46.753Z,8.97
2018-04-07T00:28:14.145Z,8.80
2018-04-07T00:30:42.312Z,8.83
2018-04-07T00:33:10.521Z,8.90
2018-04-07T00:35:37.923Z,9.37
2018-04-07T00:38:05.339Z,9.03
2018-04-07T00:40:32.753Z,9.17
2018-04-07T00:43:00.163Z,9.17
2018-04-07T00:45:27.575Z,8.73
2018-04-07T00:47:55.768Z,8.90
2018-04-07T00:50:23.171Z,9.37
2018-04-07T00:52:59.040Z,9.27
2018-04-07T00:55:26.452Z,9.47
2018-04-07T00:57:54.624Z,9.83
2018-04-07T01:00:22.824Z,10.03
2018-04-07T01:02:50.258Z,10.13
2018-04-07T01:05:17.677Z,10.23
2018-04-07T01:07:45.072Z,9.73
2018-04-07T01:10:12.486Z,9.90
2018-04-07T01:12:39.904Z,10.27
2018-04-07T01:15:07.296Z,9.80
2018-04-07T01:17:34.700Z,9.77
2018-04-07T01:20:02.129Z,10.17
2018-04-07T01:22:29.559Z,9.67
2018-04-07T01:24:56.996Z,9.23
2018-04-07T01:27:24.408Z,10.87
2018-04-07T01:29:51.810Z,9.70
2018-04-07T01:32:19.237Z,10.03
2018-04-07T01:34:46.646Z,10.90
2018-04-07T01:37:14.848Z,10.83
2018-04-07T01:39:42.245Z,10.20
2018-04-07T01:42:10.418Z,10.07
2018-04-07T01:44:37.846Z,9.97
2018-04-07T01:47:06.012Z,10.30
2018-04-07T01:49:33.444Z,10.17
2018-04-07T01:52:00.864Z,10.13
2018-04-07T01:54:28.271Z,10.43
2018-04-07T01:56:55.691Z,10.70
2018-04-07T01:59:23.114Z,10.90
2018-04-07T02:01:50.509Z,11.67
2018-04-07T02:04:17.915Z,11.90
2018-04-07T02:06:45.321Z,11.50
2018-04-07T02:09:12.753Z,11.50
2018-04-07T02:11:40.173Z,11.87
2018-04-07T02:14:07.592Z,11.43
2018-04-07T02:16:34.998Z,11.70
2018-04-07T02:19:03.192Z,11.67
2018-04-07T02:21:30.592Z,11.63
2018-04-07T02:23:58.771Z,11.60
2018-04-07T02:26:26.176Z,11.73
2018-04-07T02:28:53.589Z,11.03
2018-04-07T02:31:21.001Z,11.50
2018-04-07T02:33:48.429Z,11.33
2018-04-07T02:36:16.621Z,10.60
2018-04-07T02:38:44.041Z,11.67
2018-04-07T02:41:12.212Z,11.30
2018-04-07T02:43:39.621Z,11.53
2018-04-07T02:46:07.792Z,11.37
2018-04-07T02:48:35.997Z,11.47
2018-04-07T02:51:03.436Z,11.33
2018-04-07T02:53:30.854Z,11.17
2018-04-07T02:55:58.263Z,11.50
2018-04-07T02:58:26.437Z,11.50
2018-04-07T03:00:53.860Z,11.23
2018-04-07T03:03:22.043Z,10.93
2018-04-07T03:05:49.473Z,11.27
2018-04-07T03:08:16.885Z,12.07
2018-04-07T03:10:45.056Z,11.60
2018-04-07T03:13:13.239Z,11.70
2018-04-07T03:15:40.652Z,11.10
2018-04-07T03:18:08.832Z,12.40
2018-04-07T03:20:37.036Z,11.73
2018-04-07T03:23:04.453Z,11.00
2018-04-07T03:25:31.868Z,11.33
2018-04-07T03:28:00.061Z,11.60
2018-04-07T03:30:27.482Z,12.57
2018-04-07T03:32:54.892Z,11.73
2018-04-07T03:35:22.404Z,11.63
2018-04-07T03:37:49.790Z,12.17
2018-04-07T03:40:17.984Z,12.00
2018-04-07T03:42:45.367Z,11.80
2018-04-07T03:45:13.552Z,12.70
2018-04-07T03:47:41.720Z,12.37
2018-04-07T03:50:09.137Z,12.73
2018-04-07T03:52:36.557Z,12.87
2018-04-07T03:55:03.964Z,12.97
2018-04-07T03:57:31.398Z,12.70
2018-04-07T03:59:58.796Z,12.97
2018-04-07T04:02:26.208Z,13.00
2018-04-07T04:04:53.629Z,12.93
2018-04-07T04:07:21.048Z,13.57
2018-04-07T04:09:48.478Z,12.87
2018-04-07T04:12:16.663Z,12.97
2018-04-07T04:14:44.088Z,13.33
2018-04-07T04:17:12.271Z,13.63
2018-04-07T04:19:39.680Z,13.70
2018-04-07T04:22:07.100Z,14.90
2018-04-07T04:24:34.504Z,14.90
2018-04-07T04:27:01.909Z,13.23
2018-04-07T04:29:29.336Z,14.50
2018-04-07T04:31:56.831Z,14.10
2018-04-07T04:34:24.241Z,15.17
2018-04-07T04:36:51.653Z,14.87
2018-04-07T04:39:19.060Z,16.30
2018-04-07T04:41:46.466Z,16.03
2018-04-07T04:44:13.872Z,14.87
2018-04-07T04:46:42.049Z,16.03
2018-04-07T04:49:10.220Z,15.83
2018-04-07T04:51:37.636Z,16.07
2018-04-07T04:54:05.812Z,16.13
2018-04-07T04:56:33.991Z,16.63
2018-04-07T04:59:01.396Z,15.97
2018-04-07T05:01:29.573Z,16.63
2018-04-07T05:03:56.996Z,15.23
2018-04-07T05:06:25.164Z,15.90
2018-04-07T05:08:53.337Z,15.17
2018-04-07T05:11:20.744Z,15.17
2018-04-07T05:13:48.173Z,15.57
2018-04-07T05:16:15.568Z,16.90
2018-04-07T05:18:42.998Z,15.67
2018-04-07T05:21:11.184Z,14.67
2018-04-07T05:23:38.600Z,15.70
2018-04-07T05:26:06.022Z,15.53
2018-04-07T05:28:34.220Z,16.10
2018-04-07T05:31:01.625Z,15.67
2018-04-07T05:33:29.807Z,14.93
2018-04-07T05:35:57.224Z,15.07
2018-04-07T05:38:25.420Z,14.83
2018-04-07T05:40:52.872Z,15.13
2018-04-07T05:43:21.010Z,15.17
2018-04-07T05:45:48.424Z,14.00
2018-04-07T05:48:15.808Z,14.43
2018-04-07T05:50:43.213Z,15.30
2018-04-07T05:53:11.393Z,15.07
2018-04-07T05:55:38.805Z,14.37
2018-04-07T05:58:06.982Z,13.93
2018-04-07T06:00:34.420Z,14.17
2018-04-07T06:03:02.582Z,14.23
2018-04-07T06:05:29.981Z,14.60
2018-04-07T06:07:57.497Z,14.83
2018-04-07T06:10:24.907Z,14.23
2018-04-07T06:12:52.337Z,14.43
2018-04-07T06:15:20.528Z,15.00
2018-04-07T06:17:47.928Z,14.73
2018-04-07T06:20:16.112Z,14.43
2018-04-07T06:22:43.515Z,14.40
2018-04-07T06:25:10.931Z,13.90
2018-04-07T06:27:38.349Z,14.07
2018-04-07T06:30:05.752Z,13.87
2018-04-07T06:32:33.928Z,13.30
2018-04-07T06:35:01.342Z,13.67
2018-04-07T06:37:28.751Z,13.33
2018-04-07T06:39:56.152Z,12.93
2018-04-07T06:42:23.556Z,13.53
2018-04-07T06:44:50.961Z,12.83
2018-04-07T06:47:18.375Z,12.60
2018-04-07T06:49:46.540Z,13.60
2018-04-07T06:52:13.952Z,13.53
2018-04-07T06:54:42.118Z,13.90
2018-04-07T06:57:10.297Z,14.40
2018-04-07T06:59:37.700Z,13.90
2018-04-07T07:02:05.120Z,14.77
2018-04-07T07:04:32.520Z,14.20
2018-04-07T07:06:59.925Z,13.17
2018-04-07T07:09:27.332Z,13.90
2018-04-07T07:11:54.752Z,12.87
2018-04-07T07:14:22.201Z,13.33
2018-04-07T07:16:49.592Z,13.63
2018-04-07T07:19:17.005Z,14.67
2018-04-07T07:21:44.430Z,14.03
2018-04-07T07:24:11.830Z,13.30
2018-04-07T07:26:40.004Z,14.27
2018-04-07T07:29:07.469Z,14.43
2018-04-07T07:31:34.880Z,13.97
2018-04-07T07:34:02.360Z,13.57
2018-04-07T07:36:29.790Z,13.83
2018-04-07T07:38:57.948Z,13.43
2018-04-07T07:41:25.344Z,13.80
2018-04-07T07:43:53.554Z,13.23
2018-04-07T07:46:20.941Z,13.67
2018-04-07T07:48:49.127Z,13.53
2018-04-07T07:51:16.553Z,13.60
2018-04-07T07:53:44.729Z,13.07
2018-04-07T07:56:12.136Z,12.97
2018-04-07T07:58:39.544Z,13.17
2018-04-07T08:01:06.970Z,12.70
2018-04-07T08:03:34.416Z,13.53
2018-04-07T08:06:01.812Z,13.20
2018-04-07T08:08:30.001Z,12.80
2018-04-07T08:10:57.958Z,12.23
2018-04-07T08:13:25.348Z,12.87
2018-04-07T08:15:53.520Z,12.87
2018-04-07T08:18:21.710Z,13.33
2018-04-07T08:20:49.979Z,12.47
2018-04-07T08:23:17.350Z,12.80
2018-04-07T08:25:44.724Z,12.67
2018-04-07T08:28:12.904Z,12.53
2018-04-07T08:30:40.312Z,12.00
2018-04-07T08:33:07.724Z,12.00
2018-04-07T08:35:35.145Z,12.43
2018-04-07T08:38:02.568Z,12.07
2018-04-07T08:40:29.987Z,12.80
2018-04-07T08:42:58.192Z,11.47
2018-04-07T08:45:25.659Z,12.03
2018-04-07T08:47:53.034Z,12.60
2018-04-07T08:50:22.221Z,12.07
2018-04-07T08:52:50.396Z,11.43
2018-04-07T08:55:17.820Z,11.17
2018-04-07T08:57:46.011Z,11.70
2018-04-07T09:00:13.426Z,11.40
2018-04-07T09:02:41.608Z,11.27
2018-04-07T09:05:09.075Z,10.97
2018-04-07T09:07:36.445Z,10.70
2018-04-07T09:10:04.628Z,11.17
2018-04-07T09:12:32.044Z,10.50
2018-04-07T09:15:00.220Z,11.37
2018-04-07T09:17:28.421Z,11.73
2018-04-07T09:19:55.848Z,11.20
2018-04-07T09:22:23.268Z,12.37
2018-04-07T09:24:50.676Z,11.67
2018-04-07T09:27:18.191Z,11.77
2018-04-07T09:29:45.600Z,11.90
2018-04-07T09:32:13.008Z,10.87
2018-04-07T09:34:40.513Z,11.53
2018-04-07T09:37:07.920Z,10.87
2018-04-07T09:39:35.328Z,10.53
2018-04-07T09:42:02.812Z,10.43
2018-04-07T09:44:30.168Z,10.50
2018-04-07T09:46:57.600Z,10.10
2018-04-07T09:49:25.004Z,10.33
2018-04-07T09:51:53.189Z,9.47
2018-04-07T09:54:20.592Z,9.77
2018-04-07T09:56:48.005Z,10.40
2018-04-07T09:59:15.404Z,10.00
2018-04-07T10:01:42.837Z,10.03
2018-04-07T10:04:11.019Z,10.80
2018-04-07T10:06:38.423Z,10.47
2018-04-07T10:09:06.592Z,9.50
2018-04-07T10:11:34.777Z,10.30
2018-04-07T10:14:02.186Z,9.40
2018-04-07T10:16:30.364Z,9.37
2018-04-07T10:18:57.772Z,10.03
2018-04-07T10:21:25.180Z,8.40
2018-04-07T10:23:52.589Z,9.37
2018-04-07T10:26:20.017Z,8.80
2018-04-07T10:28:48.190Z,9.40
2018-04-07T10:31:15.668Z,8.50
2018-04-07T10:33:43.058Z,8.63
2018-04-07T10:36:11.228Z,8.97
2018-04-07T10:38:38.632Z,8.53
2018-04-07T10:41:06.032Z,8.57
2018-04-07T10:43:33.440Z,9.23
2018-04-07T10:46:01.617Z,8.77
2018-04-07T10:48:29.027Z,8.43
2018-04-07T10:50:56.423Z,9.37
2018-04-07T10:53:23.836Z,8.20
2018-04-07T10:55:51.288Z,8.50
2018-04-07T10:58:18.697Z,8.57
2018-04-07T11:00:46.897Z,9.10
2018-04-07T11:03:14.304Z,9.67
2018-04-07T11:05:42.472Z,9.90
2018-04-07T11:08:09.877Z,9.80
2018-04-07T11:10:37.286Z,9.53
2018-04-07T11:13:04.689Z,9.67
2018-04-07T11:15:32.111Z,10.30
2018-04-07T11:18:01.128Z,10.10
2018-04-07T11:20:28.580Z,9.53
2018-04-07T11:22:55.991Z,9.38
2018-04-07T11:25:24.166Z,9.82
2018-04-07T11:27:51.568Z,9.95
2018-04-07T11:30:19.073Z,10.10
2018-04-07T11:32:46.501Z,10.25
2018-04-07T11:35:13.912Z,10.30
2018-04-07T11:37:42.093Z,10.93
2018-04-07T11:40:09.502Z,10.93
2018-04-07T11:42:37.700Z,11.02
2018-04-07T11:45:05.156Z,11.25
2018-04-07T11:47:33.308Z,10.57
2018-04-07T11:50:00.745Z,9.73
2018-04-07T11:52:28.156Z,10.32
2018-04-07T11:54:56.461Z,10.32
2018-04-07T11:57:23.872Z,10.02
2018-04-07T11:59:51.289Z,9.90
2018-04-07T12:02:18.733Z,10.35
2018-04-07T12:04:46.112Z,11.00
2018-04-07T12:07:13.524Z,10.43
2018-04-07T12:09:41.724Z,9.57
2018-04-07T12:12:09.120Z,9.30
2018-04-07T12:14:37.305Z,9.10
2018-04-07T12:17:04.734Z,9.45
2018-04-07T12:19:32.904Z,9.00
2018-04-07T12:22:00.316Z,9.13
2018-04-07T12:24:28.512Z,7.97
2018-04-07T12:26:55.917Z,9.35
2018-04-07T12:29:24.102Z,9.10
2018-04-07T12:31:51.524Z,8.50
2018-04-07T12:34:19.697Z,9.88
2018-04-07T12:36:47.160Z,9.27
2018-04-07T12:39:14.568Z,9.77
2018-04-07T12:41:41.987Z,9.27
2018-04-07T12:44:09.402Z,8.63
2018-04-07T12:46:36.797Z,9.73
2018-04-07T12:49:04.265Z,8.57
2018-04-07T12:51:31.677Z,7.55
2018-04-07T12:53:59.083Z,9.00
2018-04-07T12:56:26.581Z,8.27
2018-04-07T12:58:53.997Z,6.85
2018-04-07T13:01:22.204Z,9.20
2018-04-07T13:03:49.580Z,8.15
2018-04-07T13:06:17.085Z,7.40
2018-04-07T13:08:44.523Z,7.78
2018-04-07T13:11:11.962Z,6.90
2018-04-07T13:13:39.388Z,6.68
2018-04-07T13:16:06.824Z,8.23
2018-04-07T13:18:34.248Z,8.00
2018-04-07T13:21:02.447Z,8.02
2018-04-07T13:23:29.867Z,7.15
2018-04-07T13:25:57.317Z,7.45
2018-04-07T13:28:24.720Z,7.30
2018-04-07T13:30:52.901Z,7.10
2018-04-07T13:33:21.064Z,7.07
2018-04-07T13:35:48.468Z,6.93
2018-04-07T13:38:16.640Z,6.53
2018-04-07T13:40:44.826Z,6.62
2018-04-07T13:43:12.289Z,7.03
2018-04-07T13:45:39.701Z,7.32
2018-04-07T13:48:07.112Z,6.68
2018-04-07T13:50:35.320Z,6.95
2018-04-07T13:53:02.721Z,6.45
2018-04-07T13:55:30.904Z,7.28
2018-04-07T13:57:58.368Z,5.53
2018-04-07T14:00:25.792Z,5.93
2018-04-07T14:02:53.197Z,5.75
2018-04-07T14:05:20.592Z,6.20
2018-04-07T14:07:47.997Z,5.30
2018-04-07T14:10:15.471Z,5.05
2018-04-07T14:12:42.885Z,5.93
2018-04-07T14:15:11.062Z,5.80
2018-04-07T14:17:38.500Z,4.47
2018-04-07T14:20:05.937Z,5.35
2018-04-07T14:22:33.396Z,5.82
2018-04-07T14:25:00.855Z,5.05
2018-04-07T14:27:28.232Z,5.00
2018-04-07T14:29:56.543Z,5.62
2018-04-07T14:32:23.973Z,5.00
2018-04-07T14:34:51.372Z,5.32
2018-04-07T14:37:18.780Z,6.03
2018-04-07T14:39:46.184Z,5.85
2018-04-07T14:42:13.641Z,7.22
2018-04-07T14:44:41.092Z,7.35
2018-04-07T14:47:08.508Z,6.70
2018-04-07T14:49:35.908Z,6.80
2018-04-07T14:52:03.415Z,6.60
2018-04-07T14:54:30.820Z,7.87
2018-04-07T14:56:58.989Z,6.32
2018-04-07T14:59:26.396Z,7.12
2018-04-07T15:01:53.800Z,6.45
2018-04-07T15:04:21.219Z,6.95
2018-04-07T15:06:48.621Z,6.57
2018-04-07T15:09:16.036Z,7.55
2018-04-07T15:11:43.443Z,7.60
2018-04-07T15:14:10.848Z,4.28
2018-04-07T15:16:39.023Z,7.15
2018-04-07T15:19:07.219Z,6.55
2018-04-07T15:21:34.616Z,6.20
2018-04-07T15:24:02.805Z,7.82
2018-04-07T15:26:30.208Z,7.43
2018-04-07T15:28:58.420Z,7.12
2018-04-07T15:31:25.854Z,6.68
2018-04-07T15:33:53.268Z,7.70
2018-04-07T15:36:21.441Z,5.70
2018-04-07T15:38:48.889Z,5.85
2018-04-07T15:41:16.296Z,6.60
2018-04-07T15:43:44.491Z,6.10
2018-04-07T15:46:11.899Z,7.18
2018-04-07T15:48:40.079Z,7.55
2018-04-07T15:51:07.529Z,6.22
2018-04-07T15:53:34.995Z,6.35
2018-04-07T15:56:02.391Z,6.20
2018-04-07T15:58:29.792Z,6.85
2018-04-07T16:00:57.196Z,6.00
2018-04-07T16:03:24.604Z,6.50
2018-04-07T16:05:52.773Z,6.37
2018-04-07T16:08:20.952Z,7.05
2018-04-07T16:10:50.577Z,7.05
2018-04-07T16:13:17.972Z,6.35
2018-04-07T16:15:45.389Z,6.32
2018-04-07T16:18:13.581Z,6.62
2018-04-07T16:20:40.984Z,6.22
2018-04-07T16:23:08.391Z,6.75
2018-04-07T16:25:35.812Z,5.62
2018-04-07T16:28:03.229Z,6.45
2018-04-07T16:30:31.401Z,6.80
2018-04-07T16:32:58.801Z,6.35
2018-04-07T16:35:26.319Z,7.03
2018-04-07T16:37:53.732Z,7.93
2018-04-07T16:40:21.142Z,7.60
2018-04-07T16:42:48.560Z,8.82
2018-04-07T16:45:16.020Z,8.05
2018-04-07T16:47:43.368Z,9.15
2018-04-07T16:50:11.549Z,8.32
2018-04-07T16:52:38.978Z,8.35
2018-04-07T16:55:07.140Z,8.60
2018-04-07T16:57:34.560Z,8.18
2018-04-07T17:00:02.743Z,8.52
2018-04-07T17:02:30.907Z,8.48
2018-04-07T17:04:58.369Z,8.27
2018-04-07T17:07:25.939Z,7.70
2018-04-07T17:09:53.336Z,8.07
2018-04-07T17:12:20.744Z,8.82
2018-04-07T17:14:48.202Z,8.27
2018-04-07T17:17:15.696Z,8.57
2018-04-07T17:19:43.123Z,8.10
2018-04-07T17:22:10.516Z,7.45
2018-04-07T17:24:37.945Z,7.50
2018-04-07T17:27:05.344Z,7.50
2018-04-07T17:29:32.788Z,8.30
2018-04-07T17:32:00.171Z,6.87
2018-04-07T17:34:27.593Z,6.43
2018-04-07T17:36:55.010Z,7.63
2018-04-07T17:39:22.424Z,5.50
2018-04-07T17:41:49.842Z,5.37
2018-04-07T17:44:17.332Z,4.40
2018-04-07T17:46:44.790Z,4.67
2018-04-07T17:49:12.192Z,4.33
2018-04-07T17:51:39.623Z,4.50
2018-04-07T17:54:07.024Z,4.53
2018-04-07T17:56:34.444Z,4.30
2018-04-07T17:59:01.845Z,4.40
2018-04-07T18:01:30.016Z,4.70
2018-04-07T18:03:57.427Z,5.17
2018-04-07T18:06:24.828Z,5.40
2018-04-07T18:08:52.257Z,5.10
2018-04-07T18:11:19.667Z,5.93
2018-04-07T18:13:47.896Z,5.30
2018-04-07T18:16:15.524Z,5.83
2018-04-07T18:18:42.944Z,5.13
2018-04-07T18:21:10.343Z,5.73
2018-04-07T18:23:37.765Z,6.03
2018-04-07T18:26:05.188Z,6.50
2018-04-07T18:28:32.592Z,5.60
2018-04-07T18:31:00.040Z,7.00
2018-04-07T18:33:27.467Z,7.50
2018-04-07T18:35:54.848Z,7.30
2018-04-07T18:38:22.261Z,7.70
2018-04-07T18:40:50.428Z,7.20
2018-04-07T18:43:17.897Z,7.67
2018-04-07T18:45:45.307Z,8.30
2018-04-07T18:48:12.714Z,8.73
2018-04-07T18:50:40.899Z,8.17
2018-04-07T18:53:08.308Z,7.90
2018-04-07T18:55:35.713Z,8.03
2018-04-07T18:58:03.141Z,8.20
2018-04-07T19:00:30.543Z,9.43
2018-04-07T19:02:58.716Z,13.33
2018-04-07T19:05:26.899Z,9.27
2018-04-07T19:07:54.312Z,8.50
2018-04-07T19:10:22.477Z,9.90
2018-04-07T19:12:50.660Z,10.07
2018-04-07T19:15:18.068Z,9.37
2018-04-07T19:17:46.240Z,8.90
2018-04-07T19:20:13.656Z,9.23
2018-04-07T19:22:41.850Z,8.73
2018-04-07T19:25:09.251Z,9.00
2018-04-07T19:27:36.691Z,9.30
2018-04-07T19:30:04.203Z,9.67
2018-04-07T19:32:31.580Z,9.00
2018-04-07T19:34:59.757Z,8.70
2018-04-07T19:37:27.932Z,9.13
2018-04-07T19:39:55.343Z,9.00
2018-04-07T19:42:23.572Z,8.70
2018-04-07T19:44:50.980Z,8.63
2018-04-07T19:47:18.384Z,8.57
2018-04-07T19:49:45.813Z,8.07
2018-04-07T19:52:13.226Z,8.37
2018-04-07T19:54:40.628Z,8.90
2018-04-07T19:57:08.044Z,9.17
2018-04-07T19:59:36.235Z,9.00
2018-04-07T20:02:03.652Z,9.23
2018-04-07T20:04:31.831Z,8.50
2018-04-07T20:06:59.244Z,9.53
2018-04-07T20:09:26.738Z,9.60
2018-04-07T20:11:54.139Z,8.40
2018-04-07T20:14:22.308Z,8.37
2018-04-07T20:16:49.745Z,9.03
2018-04-07T20:19:17.952Z,9.23
2018-04-07T20:21:45.341Z,9.13
2018-04-07T20:24:13.532Z,8.60
2018-04-07T20:26:40.942Z,8.93
2018-04-07T20:29:09.116Z,8.73
2018-04-07T20:31:36.576Z,9.77
2018-04-07T20:34:03.998Z,9.33
2018-04-07T20:36:31.412Z,9.17
2018-04-07T20:38:58.904Z,9.87
2018-04-07T20:41:26.317Z,9.53
2018-04-07T20:43:54.496Z,9.13
2018-04-07T20:46:21.920Z,9.83
2018-04-07T20:48:50.104Z,9.67
2018-04-07T20:51:17.507Z,10.40
2018-04-07T20:53:45.703Z,10.87
2018-04-07T20:56:13.112Z,10.90
2018-04-07T20:58:41.282Z,9.60
2018-04-07T21:01:08.687Z,9.77
2018-04-07T21:03:37.627Z,10.27
2018-04-07T21:06:05.026Z,9.30
2018-04-07T21:08:33.205Z,9.53
2018-04-07T21:11:00.616Z,9.73
2018-04-07T21:13:28.797Z,9.80
2018-04-07T21:15:56.214Z,9.90
2018-04-07T21:18:23.630Z,9.00
2018-04-07T21:20:51.035Z,9.70
2018-04-07T21:23:18.449Z,9.67
2018-04-07T21:25:46.617Z,10.33
2018-04-07T21:28:14.028Z,9.77
2018-04-07T21:30:41.435Z,9.50
2018-04-07T21:33:08.879Z,9.70
2018-04-07T21:35:36.296Z,10.60
2018-04-07T21:38:03.701Z,9.60
2018-04-07T21:40:31.132Z,9.60
2018-04-07T21:42:59.299Z,9.10
2018-04-07T21:45:26.706Z,9.73
2018-04-07T21:47:54.116Z,11.00
2018-04-07T21:50:21.524Z,9.37
2018-04-07T21:52:48.940Z,9.80
2018-04-07T21:55:16.344Z,9.07
2018-04-07T21:57:43.748Z,9.87
2018-04-07T22:00:11.973Z,10.90
2018-04-07T22:02:39.389Z,11.73
2018-04-07T22:05:06.792Z,10.97
2018-04-07T22:07:34.980Z,12.47
2018-04-07T22:10:02.394Z,11.87
2018-04-07T22:12:29.809Z,10.23
2018-04-07T22:14:57.228Z,10.10
2018-04-07T22:17:24.648Z,10.80
2018-04-07T22:19:52.060Z,10.27
2018-04-07T22:22:20.243Z,10.77
2018-04-07T22:24:47.661Z,10.50
2018-04-07T22:27:15.841Z,10.70
2018-04-07T22:29:43.272Z,10.57
2018-04-07T22:32:11.455Z,11.20
2018-04-07T22:34:38.868Z,10.90
2018-04-07T22:37:07.043Z,9.53
2018-04-07T22:39:34.478Z,9.77
2018-04-07T22:42:02.660Z,10.47
2018-04-07T22:44:30.069Z,10.20
2018-04-07T22:46:58.249Z,9.47
2018-04-07T22:49:25.680Z,10.37
2018-04-07T22:51:53.100Z,10.60
2018-04-07T22:54:20.522Z,10.50
2018-04-07T22:56:47.937Z,10.47
2018-04-07T22:59:15.352Z,10.53
2018-04-07T23:01:42.759Z,10.33
2018-04-07T23:04:10.946Z,10.53
2018-04-07T23:06:38.373Z,10.40
2018-04-07T23:09:06.548Z,10.83
2018-04-07T23:11:33.984Z,10.63
2018-04-07T23:14:01.396Z,10.50
2018-04-07T23:16:28.807Z,10.47
2018-04-07T23:18:56.284Z,10.30
2018-04-07T23:21:23.708Z,11.37
2018-04-07T23:23:51.897Z,10.23
2018-04-07T23:26:20.081Z,10.00
2018-04-07T23:28:47.492Z,11.33
2018-04-07T23:31:14.977Z,11.17
2018-04-07T23:33:42.388Z,10.63
2018-04-07T23:36:09.815Z,10.47
2018-04-07T23:38:37.987Z,9.73
2018-04-07T23:41:06.177Z,10.07
2018-04-07T23:43:33.592Z,11.03
2018-04-07T23:46:01.018Z,11.07
2018-04-07T23:48:29.197Z,9.97
2018-04-07T23:50:56.615Z,9.40
2018-04-07T23:53:24.028Z,10.00
2018-04-07T23:55:51.452Z,10.70
2018-04-07T23:58:18.859Z,10.40
